Latest Coastal Weather Observations for Taree Airport

IDN60701

Issued at 1:31 pm EDT Thursday 24 October 2019 (issued every 10 minutes, with the page automatically refreshed every 10 minutes)

About coastal observations | Map of coastal stations | Coastal observations for NSW | Marine services | Other Formats
Station Details ID: 060141 Name: TAREE AIRPORT AWS Lat: -31.89 Lon: 152.51 Height: 8.0 m
Data from the previous 72 hours. | See also: Recent months at Taree Airport
Date/Time
EDT
Wind Sea
Height
m
Swell Vis
km
Cloud Weather Temp
°C
Press
hPa
Rain since
9am
mm
Dir  Spd
kts
Gust
kts
Height
m
Period
s
Dir
24/01:30pm ESE 14 17 - - - - 10 Clear - 27.2 1017.0 0.0
24/01:00pm SE 11 15 - - - - 10 - - 28.0 1017.2 0.0
24/12:30pm ESE 9 13 - - - - 10 - - 27.1 1017.3 0.0
24/12:00pm SE 11 15 - - - - 10 Partly cloudy - 28.1 1017.5 0.0
24/11:30am W 4 8 - - - - 10 - - 30.8 1017.7 0.0
24/11:00am S 4 6 - - - - 10 - - 29.5 1018.0 0.0
24/10:30am ESE 4 6 - - - - 10 - - 28.0 1018.2 0.0
24/10:00am ESE 3 5 - - - - 10 - - 26.0 1018.5 0.0
24/09:30am SW 4 6 - - - - 10 - - 24.2 1018.6 0.0
24/09:00am NW 5 6 - - - - 10 Partly cloudy - 22.0 1018.6 0.0
24/08:30am NNE 4 5 - - - - 10 - - 18.9 1018.6 0.0
24/08:00am NNW 1 4 - - - - 10 - - 16.7 1018.5 0.0
24/07:30am CALM 0 0 - - - - 10 - - 14.7 1018.2 0.0
24/07:00am CALM 0 0 - - - - 10 - - 14.2 1017.8 0.0
24/06:30am WSW 3 4 - - - - 10 - - 13.9 1017.5 0.0
24/06:00am SSW 2 4 - - - - 10 Cloudy - 14.1 1017.4 0.0
24/05:30am SSE 3 5 - - - - 10 Partly cloudy - 13.0 1017.1 0.0
24/05:00am NNE 5 7 - - - - 10 - - 11.3 1017.1 0.0
24/04:30am W 6 8 - - - - 10 - - 12.9 1017.6 0.0
24/04:20am SW 3 8 - - - - 10 - - 12.8 1017.5 0.0
24/04:00am CALM 0 0 - - - - 0.7 - - 11.3 1017.4 0.0
24/03:57am CALM 0 0 - - - - 3 - - 11.6 1017.4 0.0
24/03:44am CALM 0 0 - - - - 10 - - 11.0 1017.6 0.0
24/03:30am CALM 0 0 - - - - 4 - - 11.6 1017.5 0.0
24/03:15am CALM 0 0 - - - - 4 - - 12.6 1017.6 0.0
24/03:00am CALM 0 1 - - - - 10 Partly cloudy - 13.5 1017.7 0.0
24/02:30am WSW 3 4 - - - - 10 - - 14.1 1018.0 0.0
24/02:00am SSW 4 5 - - - - 10 - - 14.6 1018.2 0.0
24/01:30am WSW 1 4 - - - - 10 - - 13.4 1018.4 0.0
24/01:00am CALM 0 0 - - - - 10 - - 14.2 1018.8 0.0
24/12:30am CALM 0 0 - - - - 10 - - 14.9 1019.2 0.0
24/12:00am SSW 3 4 - - - - 10 - - 15.6 1019.5 0.0
 
Date/Time
EDT
Wind Sea
Height
m
Swell Vis
km
Cloud Weather Temp
°C
Press
hPa
Rain since
9am
mm
Dir  Spd
kts
Gust
kts
Height
m
Period
s
Dir
23/11:30pm NNW 2 4 - - - - 10 - - 15.7 1019.7 0.0
23/11:00pm NNE 2 6 - - - - 10 - - 17.2 1019.9 0.0
23/10:30pm NE 4 5 - - - - 10 - - 17.2 1020.0 0.0
23/10:00pm NE 7 10 - - - - 10 - - 16.8 1020.3 0.0
23/09:30pm NE 8 9 - - - - 10 - - 16.2 1020.3 0.0
23/09:00pm ENE 5 6 - - - - 10 - - 17.6 1020.4 0.0
23/08:30pm ENE 8 9 - - - - 10 - - 18.6 1020.0 0.0
23/08:00pm ENE 7 9 - - - - 10 - - 18.9 1019.8 0.0
23/07:30pm NE 7 8 - - - - 10 - - 18.7 1019.6 0.0
23/07:00pm ENE 10 13 - - - - 10 - - 20.4 1019.4 0.0
23/06:30pm ENE 11 15 - - - - 10 - - 21.4 1019.1 0.0
23/06:00pm ENE 13 16 - - - - 10 - - 22.4 1018.9 0.0
23/05:30pm ENE 14 17 - - - - 10 - - 23.1 1018.7 0.0
23/05:00pm E 13 18 - - - - 10 - - 23.7 1018.6 0.0
23/04:30pm ENE 13 17 - - - - 10 - - 24.5 1018.8 0.0
23/04:00pm ENE 12 18 - - - - 10 - - 24.4 1019.0 0.0
23/03:30pm E 15 21 - - - - 10 - - 23.9 1019.2 0.0
23/03:00pm E 15 19 - - - - 10 - - 24.7 1019.6 0.0
23/02:30pm E 14 18 - - - - 10 - - 25.1 1019.9 0.0
23/02:00pm E 15 20 - - - - 10 - - 24.5 1020.4 0.0
23/01:30pm E 14 18 - - - - 10 - - 24.9 1020.9 0.0
23/01:00pm E 13 17 - - - - 10 - - 25.2 1021.3 0.0
23/12:30pm ENE 9 15 - - - - 10 - - 26.1 1021.7 0.0
23/12:00pm ENE 7 14 - - - - 10 - - 25.0 1022.2 0.0
23/11:30am NE 6 9 - - - - 10 - - 24.5 1022.8 0.0
23/11:00am ENE 6 10 - - - - 10 - - 23.6 1023.3 0.0
23/10:30am E 6 11 - - - - 10 - - 22.2 1023.8 0.0
23/10:00am N 6 9 - - - - 10 - - 21.7 1024.0 0.0
23/09:30am NNE 5 9 - - - - 10 - - 20.0 1024.2 0.0
23/09:00am WSW 5 7 - - - - 10 - - 18.2 1024.4 0.0
23/08:30am W 5 6 - - - - 10 - - 16.1 1024.4 0.0
23/08:00am W 5 6 - - - - 10 - - 14.0 1024.3 0.0
23/07:30am CALM 0 0 - - - - 10 - - 12.1 1024.1 0.0
23/07:00am CALM 0 0 - - - - 10 - - 10.3 1023.9 0.0
23/06:30am CALM 0 3 - - - - 10 - - 8.8 1023.5 0.0
23/06:00am W 4 5 - - - - 10 - - 10.1 1023.1 0.0
23/05:30am CALM 0 0 - - - - 10 - - 9.8 1023.0 0.0
23/05:01am CALM 0 0 - - - - 10 - - 10.1 1022.7 0.0
23/05:00am CALM 0 0 - - - - 10 - - 10.2 1022.7 0.0
23/04:38am CALM 0 0 - - - - 5 - - 9.4 1022.7 0.0
23/04:30am CALM 0 0 - - - - 10 - - 9.6 1022.6 0.0
23/04:06am CALM 0 0 - - - - 10 Partly cloudy - 9.8 1022.7 0.0
23/04:00am CALM 0 0 - - - - 7 Partly cloudy - 9.6 1022.7 0.0
23/03:45am CALM 0 0 - - - - 5 - - 10.0 1022.7 0.0
23/03:37am CALM 0 0 - - - - 10 - - 10.1 1022.7 0.0
23/03:30am CALM 0 0 - - - - 10 - - 9.9 1022.6 0.0
23/03:11am CALM 0 2 - - - - 4 - - 10.8 1022.6 0.0
23/03:00am W 2 4 - - - - 10 - - 11.2 1022.6 0.0
23/02:30am CALM 0 0 - - - - 10 - - 12.7 1022.7 0.0
23/02:00am S 4 4 - - - - 10 - - 13.4 1023.0 0.0
23/01:30am S 3 4 - - - - 10 - - 13.0 1023.2 0.0
23/01:00am S 2 4 - - - - 10 - - 13.1 1023.4 0.0
23/12:30am W 3 4 - - - - 10 - - 14.0 1023.8 0.0
23/12:00am ENE 4 5 - - - - 10 - - 13.3 1024.0 0.0
 
Date/Time
EDT
Wind Sea
Height
m
Swell Vis
km
Cloud Weather Temp
°C
Press
hPa
Rain since
9am
mm
Dir  Spd
kts
Gust
kts
Height
m
Period
s
Dir
22/11:30pm NE 3 4 - - - - 10 - - 14.5 1024.0 0.0
22/11:00pm ENE 3 5 - - - - 10 - - 14.7 1023.9 0.0
22/10:30pm E 3 5 - - - - 10 - - 15.2 1023.9 0.0
22/10:00pm NNE 7 10 - - - - 10 - - 16.1 1023.8 0.0
22/09:30pm ENE 7 8 - - - - 10 - - 15.2 1024.3 0.0
22/09:00pm ENE 7 8 - - - - 10 - - 15.4 1024.1 0.0
22/08:30pm ENE 8 10 - - - - 10 - - 16.9 1024.0 0.0
22/08:00pm ENE 10 14 - - - - 10 - - 17.8 1023.9 0.0
22/07:30pm E 7 10 - - - - 10 - - 17.9 1023.6 0.0
22/07:00pm E 9 13 - - - - 10 - - 18.7 1023.2 0.0
22/06:30pm E 9 13 - - - - 10 - - 19.8 1022.9 0.0
22/06:00pm E 11 15 - - - - 10 - - 20.5 1022.6 0.0
22/05:30pm E 11 15 - - - - 10 - - 21.4 1022.3 0.0
22/05:00pm E 10 15 - - - - 10 - - 21.9 1022.1 0.0
22/04:30pm E 12 15 - - - - 10 - - 22.0 1022.1 0.0
22/04:00pm E 11 15 - - - - 10 - - 22.6 1022.2 0.0
22/03:30pm E 11 18 - - - - 10 - - 22.5 1022.3 0.0
22/03:00pm E 12 17 - - - - 10 - - 22.7 1022.5 0.0
22/02:30pm E 11 16 - - - - 10 - - 22.3 1022.9 0.0
22/02:00pm ESE 11 16 - - - - 10 - - 22.6 1023.2 0.0
22/01:30pm E 11 16 - - - - 10 - - 23.2 1023.6 0.0
22/01:00pm E 10 15 - - - - 10 - - 22.1 1023.8 0.0
22/12:30pm ESE 11 17 - - - - 10 - - 22.4 1023.9 0.0
22/12:00pm E 9 13 - - - - 10 - - 22.8 1024.3 0.0
22/11:30am S 6 10 - - - - 10 - - 21.8 1024.8 0.0
22/11:00am ENE 5 8 - - - - 10 - - 22.0 1025.2 0.0
22/10:30am SSW 5 8 - - - - 10 - - 20.5 1025.7 0.0
22/10:00am SE 4 5 - - - - 10 - - 20.0 1025.8 0.0
22/09:30am SW 4 6 - - - - 10 - - 18.6 1026.0 0.0
22/09:00am WSW 5 7 - - - - 10 - - 17.2 1026.0 0.0
22/08:30am WSW 6 8 - - - - 10 - - 15.7 1025.8 0.0
22/08:00am W 6 7 - - - - 10 - - 13.8 1025.8 0.0
22/07:30am WSW 5 7 - - - - 10 - - 11.6 1025.8 0.0
22/07:00am CALM 0 4 - - - - 10 - - 9.6 1025.6 0.0
22/06:30am CALM 0 0 - - - - 10 - - 8.5 1025.2 0.0
22/06:00am NW 1 4 - - - - 10 - - 7.1 1025.0 0.0
22/05:30am CALM 0 0 - - - - 10 - - 7.5 1024.8 0.0
22/05:00am CALM 0 0 - - - - 10 - - 7.8 1024.5 0.0
22/04:30am CALM 0 0 - - - - 10 - - 8.3 1024.4 0.0
22/04:00am CALM 0 0 - - - - 10 - - 8.4 1024.2 0.0
22/03:30am CALM 0 0 - - - - 10 - - 7.9 1024.3 0.0
22/03:00am CALM 0 0 - - - - 10 - - 8.3 1024.4 0.0
22/02:30am CALM 0 0 - - - - 10 - - 9.9 1024.6 0.0
22/02:00am CALM 0 0 - - - - 10 - - 9.9 1024.8 0.0
22/01:30am CALM 0 0 - - - - 10 - - 11.1 1025.2 0.0
22/01:00am CALM 0 0 - - - - 10 - - 11.0 1025.3 0.0
22/12:30am CALM 0 0 - - - - 10 - - 10.9 1025.6 0.0
22/12:00am CALM 0 0 - - - - 10 - - 12.0 1025.8 0.0
 
Date/Time
EDT
Wind Sea
Height
m
Swell Vis
km
Cloud Weather Temp
°C
Press
hPa
Rain since
9am
mm
Dir  Spd
kts
Gust
kts
Height
m
Period
s
Dir
21/11:30pm CALM 0 0 - - - - 10 - - 11.9 1025.9 0.0
21/11:00pm CALM 0 0 - - - - 10 - - 12.1 1026.1 0.0
21/10:30pm CALM 0 0 - - - - 10 - - 13.0 1026.2 0.0
21/10:00pm CALM 0 0 - - - - 10 - - 12.8 1026.3 0.0
21/09:30pm CALM 0 0 - - - - 10 - - 13.6 1026.5 0.0
21/09:00pm NE 3 4 - - - - 10 - - 14.6 1026.3 0.0
21/08:30pm ENE 3 3 - - - - 10 - - 15.3 1026.1 0.0
21/08:00pm E 4 5 - - - - 10 - - 15.5 1026.0 0.0
21/07:30pm E 5 6 - - - - 10 - - 16.7 1025.6 0.0
21/07:00pm ENE 7 9 - - - - 10 - - 17.6 1025.2 0.0
21/06:30pm ENE 10 14 - - - - 10 - - 18.6 1024.8 0.0
21/06:00pm E 10 15 - - - - 10 - - 19.2 1024.6 0.0
21/05:30pm ESE 11 16 - - - - 10 - - 19.7 1024.2 0.0
21/05:00pm E 11 15 - - - - 10 - - 20.1 1024.1 0.0
21/04:30pm ESE 11 16 - - - - 10 - - 20.5 1024.0 0.0
21/04:00pm E 12 16 - - - - 10 - - 21.1 1024.0 0.0
21/03:30pm E 11 15 - - - - 10 - - 21.3 1024.2 0.0
21/03:00pm E 11 16 - - - - 10 - - 21.6 1024.4 0.0
21/02:30pm E 12 15 - - - - 10 - - 21.0 1024.6 0.0
21/02:00pm ESE 11 15 - - - - 10 - - 21.4 1024.9 0.0

Other formats

Comma delimited format used in spreadsheet applications
http://www.bom.gov.au/fwo/IDN60701/IDN60701.95784.axf

JavaScript Object Notation format (JSON) in row-major order
http://www.bom.gov.au/fwo/IDN60701/IDN60701.95784.json

Data quality

Most of these data are generated automatically and are frequently updated. Quality checks on data are not normally performed. It is possible for incorrect values to appear. Refer to information at About Latest Weather Observations and please check the disclaimer before using these data.